»·PEaware :: N3023K KSAN-KSNA

N3023K :: KSAN-KSNA

FLIGHT INFORMATION

Flight Status: Arrived
Operator: Privately registered:
United States
More flights under this callsign
Pilot: Christopher B. (19444)
Aircraft: Unknown
(P28U)
More flights by this aircraft type
Origin: KSAN San Diego Intl-Lindbergh
United States
Destination: KSNA John Wayne-Orange Co
United States
More flights between these airports :: More routes between these airports
Route:
File this flight plan on PilotEdge
Remarks:
Altitude:
(Current/Filed)
6,500ft
Speed:
(Current/Filed)
140kts
Departed: 12-Jan-20 02:30 PM
Arrived: 12-Jan-20 03:08 PM
Distance/Time
Traveled:
66nm/0:38
Distance/Time
To Go:
Arrived

Flight Plot

Page will automatically refresh every two minutes.


Map Options




Map Legend


Flown Route
Filed Route
Departure Airport
Arrival Airport
Navaid (VOR, NDB)
Fix

Horizontal Profiles

Position Reports

Time Latitude Longitude Heading Altitude Ground
Speed
12-Jan-20 14:10 32.732420 -117.176641 193 23ft 0kts
12-Jan-20 14:11 32.732420 -117.176641 193 23ft 0kts
12-Jan-20 14:12 32.732420 -117.176641 193 23ft 0kts
12-Jan-20 14:13 32.732420 -117.176641 193 23ft 0kts
12-Jan-20 14:14 32.732420 -117.176641 193 23ft 0kts
12-Jan-20 14:15 32.732420 -117.176641 193 23ft 0kts
12-Jan-20 14:16 32.732420 -117.176641 193 23ft 0kts
12-Jan-20 14:17 32.732420 -117.176641 193 23ft 0kts
12-Jan-20 14:18 32.732420 -117.176641 193 23ft 0kts
12-Jan-20 14:19 32.732420 -117.176641 193 23ft 0kts
12-Jan-20 14:20 32.732420 -117.176641 193 23ft 0kts
12-Jan-20 14:21 32.732420 -117.176641 194 23ft 0kts
12-Jan-20 14:22 32.732420 -117.176641 194 23ft 0kts
12-Jan-20 14:23 32.732420 -117.176641 194 23ft 0kts
12-Jan-20 14:24 32.732420 -117.176641 194 23ft 0kts
12-Jan-20 14:25 32.731866 -117.177045 178 21ft 5kts
12-Jan-20 14:26 32.731177 -117.176597 193 21ft 0kts
12-Jan-20 14:27 32.731177 -117.176597 193 21ft 0kts
12-Jan-20 14:28 32.730618 -117.177496 284 18ft 1kts
12-Jan-20 14:30 32.735203 -117.197777 286 571ft 82kts
12-Jan-20 14:31 32.748267 -117.219652 318 1372ft 91kts
12-Jan-20 14:32 32.769140 -117.242089 319 1711ft 116kts
12-Jan-20 14:33 32.794710 -117.267076 324 1715ft 119kts
12-Jan-20 14:34 32.822715 -117.288895 327 1440ft 123kts
12-Jan-20 14:35 32.855040 -117.299690 344 1771ft 119kts
12-Jan-20 14:36 32.886746 -117.307760 344 2447ft 116kts
12-Jan-20 14:37 32.917439 -117.315204 344 3183ft 113kts
12-Jan-20 14:38 32.948187 -117.322361 344 3832ft 113kts
12-Jan-20 14:39 32.977419 -117.332983 343 4477ft 108kts
12-Jan-20 14:40 33.006410 -117.342696 343 5068ft 103kts
12-Jan-20 14:41 33.035093 -117.350832 345 5594ft 107kts
12-Jan-20 14:42 33.062694 -117.363278 326 6197ft 106kts
12-Jan-20 14:43 33.089572 -117.383188 326 6342ft 121kts
12-Jan-20 14:44 33.118569 -117.404536 326 6308ft 122kts
12-Jan-20 14:45 33.143581 -117.423699 326 6452ft 119kts
12-Jan-20 14:46 33.172206 -117.444714 326 6410ft 123kts
12-Jan-20 14:47 33.201454 -117.465374 326 6434ft 122kts
12-Jan-20 14:48 33.230768 -117.486315 326 6413ft 122kts
12-Jan-20 14:49 33.257749 -117.505730 325 6451ft 117kts
12-Jan-20 14:50 33.285949 -117.526013 325 6411ft 119kts
12-Jan-20 14:50 33.309571 -117.543126 325 6401ft 118kts
12-Jan-20 14:52 33.339498 -117.570958 314 6369ft 117kts
12-Jan-20 14:53 33.356182 -117.604552 300 6348ft 118kts
12-Jan-20 14:53 33.368920 -117.633687 299 6345ft 118kts
12-Jan-20 14:55 33.395301 -117.665550 324 6301ft 120kts
12-Jan-20 14:55 33.418498 -117.683041 324 6133ft 117kts
12-Jan-20 14:56 33.445768 -117.704178 324 5265ft 118kts
12-Jan-20 14:58 33.476901 -117.729580 324 4092ft 116kts
12-Jan-20 14:58 33.500244 -117.745857 327 3299ft 117kts
12-Jan-20 14:59 33.529924 -117.764502 327 2773ft 123kts
12-Jan-20 15:01 33.566311 -117.786004 327 2561ft 128kts
12-Jan-20 15:01 33.593196 -117.801452 327 2394ft 130kts
12-Jan-20 15:02 33.625507 -117.820351 325 1620ft 129kts
12-Jan-20 15:03 33.649237 -117.847783 304 1266ft 112kts
12-Jan-20 15:04 33.679715 -117.844145 27 917ft 115kts
12-Jan-20 15:05 33.703306 -117.836742 278 575ft 78kts
12-Jan-20 15:06 33.693163 -117.855244 219 376ft 66kts
12-Jan-20 15:07 33.678438 -117.865210 205 59ft 29kts
12-Jan-20 15:08 33.676872 -117.865601 116 59ft 0kts
12-Jan-20 15:09 33.675802 -117.865404 206 59ft 8kts
12-Jan-20 15:10 33.673495 -117.866862 206 59ft 4kts
12-Jan-20 15:11 33.672520 -117.866244 57 59ft 3kts
12-Jan-20 15:12 33.672713 -117.866308 242 59ft 0kts
12-Jan-20 15:13 33.672713 -117.866308 242 59ft 0kts
12-Jan-20 15:14 33.672713 -117.866308 242 59ft 0kts
12-Jan-20 15:15 33.672713 -117.866308 242 59ft 0kts
12-Jan-20 15:16 33.672713 -117.866308 242 59ft 0kts
12-Jan-20 15:17 33.672713 -117.866308 242 59ft 0kts
12-Jan-20 15:18 33.672713 -117.866308 242 59ft 0kts
12-Jan-20 15:19 33.672713 -117.866308 242 59ft 0kts
12-Jan-20 15:20 33.672713 -117.866308 242 59ft 0kts
12-Jan-20 15:21 33.672713 -117.866308 242 59ft 0kts

Navigation Log

Ident Type
Flight plan parsing failed, navigation log unavailable